sensor_id;sensor_type;location;lat;lon;timestamp;temperature;humidity
13892;DHT22;7016;48.172;8.058;2023-04-03T00:00:05;7.30;99.90
13892;DHT22;7016;48.172;8.058;2023-04-03T00:02:30;7.10;99.90
13892;DHT22;7016;48.172;8.058;2023-04-03T00:04:56;7.00;99.90
13892;DHT22;7016;48.172;8.058;2023-04-03T00:07:22;6.90;99.90
13892;DHT22;7016;48.172;8.058;2023-04-03T00:09:48;6.90;99.90
13892;DHT22;7016;48.172;8.058;2023-04-03T00:12:14;6.90;99.90
13892;DHT22;7016;48.172;8.058;2023-04-03T00:14:41;6.60;99.90
13892;DHT22;7016;48.172;8.058;2023-04-03T00:17:06;6.50;99.90
13892;DHT22;7016;48.172;8.058;2023-04-03T00:19:32;5.10;99.90
13892;DHT22;7016;48.172;8.058;2023-04-03T00:21:58;6.70;99.90
13892;DHT22;7016;48.172;8.058;2023-04-03T00:24:24;6.80;99.90
13892;DHT22;7016;48.172;8.058;2023-04-03T00:26:49;6.90;99.90
13892;DHT22;7016;48.172;8.058;2023-04-03T00:29:15;7.00;99.90
13892;DHT22;7016;48.172;8.058;2023-04-03T00:31:41;7.20;99.90
13892;DHT22;7016;48.172;8.058;2023-04-03T00:34:07;7.10;99.90
13892;DHT22;7016;48.172;8.058;2023-04-03T00:36:33;7.10;99.90
13892;DHT22;7016;48.172;8.058;2023-04-03T00:38:58;7.10;99.90
13892;DHT22;7016;48.172;8.058;2023-04-03T00:41:24;6.90;99.90
13892;DHT22;7016;48.172;8.058;2023-04-03T00:43:51;6.90;99.90
13892;DHT22;7016;48.172;8.058;2023-04-03T00:46:16;7.00;99.90
13892;DHT22;7016;48.172;8.058;2023-04-03T00:48:48;7.00;99.90
13892;DHT22;7016;48.172;8.058;2023-04-03T00:51:18;7.10;99.90
13892;DHT22;7016;48.172;8.058;2023-04-03T00:53:55;7.10;99.90
13892;DHT22;7016;48.172;8.058;2023-04-03T00:56:23;7.10;99.90
13892;DHT22;7016;48.172;8.058;2023-04-03T00:59:02;7.00;99.90
13892;DHT22;7016;48.172;8.058;2023-04-03T01:01:30;6.90;99.90
13892;DHT22;7016;48.172;8.058;2023-04-03T01:03:57;6.80;99.90
13892;DHT22;7016;48.172;8.058;2023-04-03T01:06:27;6.70;99.90
13892;DHT22;7016;48.172;8.058;2023-04-03T01:08:54;6.70;99.90
13892;DHT22;7016;48.172;8.058;2023-04-03T01:11:20;6.70;99.90
13892;DHT22;7016;48.172;8.058;2023-04-03T01:13:47;6.60;99.90
13892;DHT22;7016;48.172;8.058;2023-04-03T01:16:12;6.70;99.90
13892;DHT22;7016;48.172;8.058;2023-04-03T01:18:39;6.70;99.90
13892;DHT22;7016;48.172;8.058;2023-04-03T01:26:28;6.60;99.90
13892;DHT22;7016;48.172;8.058;2023-04-03T01:28:54;6.60;99.90
13892;DHT22;7016;48.172;8.058;2023-04-03T01:31:49;6.70;99.90
13892;DHT22;7016;48.172;8.058;2023-04-03T01:34:15;6.50;99.90
13892;DHT22;7016;48.172;8.058;2023-04-03T01:36:41;6.30;99.90
13892;DHT22;7016;48.172;8.058;2023-04-03T01:39:07;6.40;99.90
13892;DHT22;7016;48.172;8.058;2023-04-03T01:41:33;6.40;99.90
13892;DHT22;7016;48.172;8.058;2023-04-03T01:43:58;6.40;99.90
13892;DHT22;7016;48.172;8.058;2023-04-03T01:46:24;6.30;99.90
13892;DHT22;7016;48.172;8.058;2023-04-03T01:48:50;6.40;99.90
13892;DHT22;7016;48.172;8.058;2023-04-03T01:51:16;6.30;99.90
13892;DHT22;7016;48.172;8.058;2023-04-03T01:53:41;6.30;99.90
13892;DHT22;7016;48.172;8.058;2023-04-03T01:56:07;6.20;99.90
13892;DHT22;7016;48.172;8.058;2023-04-03T01:58:33;6.20;99.90
13892;DHT22;7016;48.172;8.058;2023-04-03T02:00:59;6.20;99.90
13892;DHT22;7016;48.172;8.058;2023-04-03T02:03:24;6.20;99.90
13892;DHT22;7016;48.172;8.058;2023-04-03T02:05:50;6.10;99.90
13892;DHT22;7016;48.172;8.058;2023-04-03T02:08:16;6.00;99.90
13892;DHT22;7016;48.172;8.058;2023-04-03T02:10:47;5.90;99.90
13892;DHT22;7016;48.172;8.058;2023-04-03T02:13:13;5.90;99.90
13892;DHT22;7016;48.172;8.058;2023-04-03T02:15:39;6.00;99.90
13892;DHT22;7016;48.172;8.058;2023-04-03T02:18:05;6.00;99.90
13892;DHT22;7016;48.172;8.058;2023-04-03T02:20:31;6.20;99.90
13892;DHT22;7016;48.172;8.058;2023-04-03T02:22:57;6.30;99.90
13892;DHT22;7016;48.172;8.058;2023-04-03T02:25:23;6.30;99.90
13892;DHT22;7016;48.172;8.058;2023-04-03T02:27:49;6.30;99.90
13892;DHT22;7016;48.172;8.058;2023-04-03T02:30:15;6.10;99.90
13892;DHT22;7016;48.172;8.058;2023-04-03T02:32:42;6.00;99.90
13892;DHT22;7016;48.172;8.058;2023-04-03T02:35:09;6.10;99.90
13892;DHT22;7016;48.172;8.058;2023-04-03T02:37:35;6.10;99.90
13892;DHT22;7016;48.172;8.058;2023-04-03T02:40:02;6.00;99.90
13892;DHT22;7016;48.172;8.058;2023-04-03T02:42:28;6.00;99.90
13892;DHT22;7016;48.172;8.058;2023-04-03T02:44:54;6.00;99.90
13892;DHT22;7016;48.172;8.058;2023-04-03T02:47:21;6.00;99.90
13892;DHT22;7016;48.172;8.058;2023-04-03T02:49:46;6.00;99.90
13892;DHT22;7016;48.172;8.058;2023-04-03T02:52:13;5.90;99.90
13892;DHT22;7016;48.172;8.058;2023-04-03T02:54:39;5.90;99.90
13892;DHT22;7016;48.172;8.058;2023-04-03T02:57:04;5.80;99.90
13892;DHT22;7016;48.172;8.058;2023-04-03T02:59:30;6.00;99.90
13892;DHT22;7016;48.172;8.058;2023-04-03T03:01:56;6.10;99.90
13892;DHT22;7016;48.172;8.058;2023-04-03T03:04:22;6.00;99.90
13892;DHT22;7016;48.172;8.058;2023-04-03T03:06:48;6.00;99.90
13892;DHT22;7016;48.172;8.058;2023-04-03T03:09:14;6.10;99.90
13892;DHT22;7016;48.172;8.058;2023-04-03T03:11:40;6.20;99.90
13892;DHT22;7016;48.172;8.058;2023-04-03T03:14:05;6.10;99.90
13892;DHT22;7016;48.172;8.058;2023-04-03T03:16:31;6.20;99.90
13892;DHT22;7016;48.172;8.058;2023-04-03T03:18:57;6.20;99.90
13892;DHT22;7016;48.172;8.058;2023-04-03T03:21:22;6.20;99.90
13892;DHT22;7016;48.172;8.058;2023-04-03T03:23:48;6.30;99.90
13892;DHT22;7016;48.172;8.058;2023-04-03T03:26:14;6.30;99.90
13892;DHT22;7016;48.172;8.058;2023-04-03T03:28:40;6.20;99.90
13892;DHT22;7016;48.172;8.058;2023-04-03T03:31:08;6.00;99.90
13892;DHT22;7016;48.172;8.058;2023-04-03T03:33:34;5.90;99.90
13892;DHT22;7016;48.172;8.058;2023-04-03T03:36:00;6.00;99.90
13892;DHT22;7016;48.172;8.058;2023-04-03T03:38:25;5.90;99.90
13892;DHT22;7016;48.172;8.058;2023-04-03T03:40:52;5.90;99.90
13892;DHT22;7016;48.172;8.058;2023-04-03T03:43:18;5.80;99.90
13892;DHT22;7016;48.172;8.058;2023-04-03T03:45:44;5.90;99.90
13892;DHT22;7016;48.172;8.058;2023-04-03T03:48:11;5.90;99.90
13892;DHT22;7016;48.172;8.058;2023-04-03T03:50:36;6.00;99.90
13892;DHT22;7016;48.172;8.058;2023-04-03T03:53:02;6.10;99.90
13892;DHT22;7016;48.172;8.058;2023-04-03T03:55:28;6.10;99.90
13892;DHT22;7016;48.172;8.058;2023-04-03T03:57:54;5.90;99.90
13892;DHT22;7016;48.172;8.058;2023-04-03T04:00:19;5.90;99.90
13892;DHT22;7016;48.172;8.058;2023-04-03T04:02:45;6.00;99.90
13892;DHT22;7016;48.172;8.058;2023-04-03T04:05:11;6.00;99.90
13892;DHT22;7016;48.172;8.058;2023-04-03T04:07:37;5.80;99.90
13892;DHT22;7016;48.172;8.058;2023-04-03T04:10:03;5.80;99.90
13892;DHT22;7016;48.172;8.058;2023-04-03T04:12:28;5.80;99.90
13892;DHT22;7016;48.172;8.058;2023-04-03T04:14:54;5.70;99.90
13892;DHT22;7016;48.172;8.058;2023-04-03T04:17:20;5.70;99.90
13892;DHT22;7016;48.172;8.058;2023-04-03T04:19:46;5.70;99.90
13892;DHT22;7016;48.172;8.058;2023-04-03T04:22:12;5.70;99.90
13892;DHT22;7016;48.172;8.058;2023-04-03T04:24:38;5.70;99.90
13892;DHT22;7016;48.172;8.058;2023-04-03T04:27:04;5.70;99.90
13892;DHT22;7016;48.172;8.058;2023-04-03T04:29:30;5.70;99.90
13892;DHT22;7016;48.172;8.058;2023-04-03T04:32:01;5.70;99.90
13892;DHT22;7016;48.172;8.058;2023-04-03T04:34:26;5.50;99.90
13892;DHT22;7016;48.172;8.058;2023-04-03T04:36:52;5.50;99.90
13892;DHT22;7016;48.172;8.058;2023-04-03T04:39:17;5.60;99.90
13892;DHT22;7016;48.172;8.058;2023-04-03T04:41:43;5.50;99.90
13892;DHT22;7016;48.172;8.058;2023-04-03T04:44:09;5.40;99.90
13892;DHT22;7016;48.172;8.058;2023-04-03T04:46:35;5.20;99.90
13892;DHT22;7016;48.172;8.058;2023-04-03T04:49:00;5.30;99.90
13892;DHT22;7016;48.172;8.058;2023-04-03T04:51:26;5.30;99.90
13892;DHT22;7016;48.172;8.058;2023-04-03T04:53:52;5.40;99.90
13892;DHT22;7016;48.172;8.058;2023-04-03T04:56:17;5.40;99.90
13892;DHT22;7016;48.172;8.058;2023-04-03T04:58:43;5.40;99.90
13892;DHT22;7016;48.172;8.058;2023-04-03T05:01:10;5.40;99.90
13892;DHT22;7016;48.172;8.058;2023-04-03T05:03:36;5.60;99.90
13892;DHT22;7016;48.172;8.058;2023-04-03T05:06:02;5.70;99.90
13892;DHT22;7016;48.172;8.058;2023-04-03T05:08:28;5.70;99.90
13892;DHT22;7016;48.172;8.058;2023-04-03T05:10:54;5.60;99.90
13892;DHT22;7016;48.172;8.058;2023-04-03T05:13:19;5.60;99.90
13892;DHT22;7016;48.172;8.058;2023-04-03T05:15:46;5.60;99.90
13892;DHT22;7016;48.172;8.058;2023-04-03T05:18:12;5.60;99.90
13892;DHT22;7016;48.172;8.058;2023-04-03T05:20:38;5.60;99.90
13892;DHT22;7016;48.172;8.058;2023-04-03T05:23:04;5.70;99.90
13892;DHT22;7016;48.172;8.058;2023-04-03T05:25:29;5.60;99.90
13892;DHT22;7016;48.172;8.058;2023-04-03T05:27:55;5.50;99.90
13892;DHT22;7016;48.172;8.058;2023-04-03T05:30:21;5.40;99.90
13892;DHT22;7016;48.172;8.058;2023-04-03T05:32:47;5.40;99.90
13892;DHT22;7016;48.172;8.058;2023-04-03T05:37:40;5.40;99.90
13892;DHT22;7016;48.172;8.058;2023-04-03T05:40:07;5.50;99.90
13892;DHT22;7016;48.172;8.058;2023-04-03T05:42:33;5.40;99.90
13892;DHT22;7016;48.172;8.058;2023-04-03T05:44:59;5.40;99.90
13892;DHT22;7016;48.172;8.058;2023-04-03T05:47:25;5.40;99.90
13892;DHT22;7016;48.172;8.058;2023-04-03T05:49:50;5.30;99.90
13892;DHT22;7016;48.172;8.058;2023-04-03T05:52:26;5.40;99.90
13892;DHT22;7016;48.172;8.058;2023-04-03T05:54:52;5.40;99.90
13892;DHT22;7016;48.172;8.058;2023-04-03T05:57:18;5.30;99.90
13892;DHT22;7016;48.172;8.058;2023-04-03T05:59:45;5.30;99.90
13892;DHT22;7016;48.172;8.058;2023-04-03T06:02:17;5.40;99.90
13892;DHT22;7016;48.172;8.058;2023-04-03T06:04:43;5.40;99.90
13892;DHT22;7016;48.172;8.058;2023-04-03T06:07:14;5.40;99.90
13892;DHT22;7016;48.172;8.058;2023-04-03T06:09:41;5.30;99.90
13892;DHT22;7016;48.172;8.058;2023-04-03T06:12:07;5.30;99.90
13892;DHT22;7016;48.172;8.058;2023-04-03T06:14:33;5.20;99.90
13892;DHT22;7016;48.172;8.058;2023-04-03T06:16:59;5.30;99.90
13892;DHT22;7016;48.172;8.058;2023-04-03T06:19:25;5.30;99.90
13892;DHT22;7016;48.172;8.058;2023-04-03T06:21:51;5.20;99.90
13892;DHT22;7016;48.172;8.058;2023-04-03T06:24:17;5.30;99.90
13892;DHT22;7016;48.172;8.058;2023-04-03T06:26:43;5.30;99.90
13892;DHT22;7016;48.172;8.058;2023-04-03T06:29:09;5.50;99.90
13892;DHT22;7016;48.172;8.058;2023-04-03T06:31:35;5.30;99.90
13892;DHT22;7016;48.172;8.058;2023-04-03T06:34:02;5.30;99.90
13892;DHT22;7016;48.172;8.058;2023-04-03T06:36:29;5.30;99.90
13892;DHT22;7016;48.172;8.058;2023-04-03T06:38:55;5.30;99.90
13892;DHT22;7016;48.172;8.058;2023-04-03T06:41:21;5.40;99.90
13892;DHT22;7016;48.172;8.058;2023-04-03T06:43:47;5.50;99.90
13892;DHT22;7016;48.172;8.058;2023-04-03T06:46:18;5.70;99.90
13892;DHT22;7016;48.172;8.058;2023-04-03T06:48:45;5.70;99.90
13892;DHT22;7016;48.172;8.058;2023-04-03T06:51:19;5.70;99.90
13892;DHT22;7016;48.172;8.058;2023-04-03T06:53:47;5.80;99.90
13892;DHT22;7016;48.172;8.058;2023-04-03T06:56:12;5.90;99.90
13892;DHT22;7016;48.172;8.058;2023-04-03T06:58:39;6.00;99.90
13892;DHT22;7016;48.172;8.058;2023-04-03T07:01:05;5.60;99.90
13892;DHT22;7016;48.172;8.058;2023-04-03T07:03:30;5.60;99.90
13892;DHT22;7016;48.172;8.058;2023-04-03T07:05:56;5.80;99.90
13892;DHT22;7016;48.172;8.058;2023-04-03T07:08:22;5.80;99.90
13892;DHT22;7016;48.172;8.058;2023-04-03T07:10:49;5.70;99.90
13892;DHT22;7016;48.172;8.058;2023-04-03T07:13:15;5.70;99.90
13892;DHT22;7016;48.172;8.058;2023-04-03T07:15:41;5.60;99.90
13892;DHT22;7016;48.172;8.058;2023-04-03T07:18:07;5.60;99.90
13892;DHT22;7016;48.172;8.058;2023-04-03T07:20:32;5.50;99.90
13892;DHT22;7016;48.172;8.058;2023-04-03T07:22:58;5.50;99.90
13892;DHT22;7016;48.172;8.058;2023-04-03T07:25:25;5.50;99.90
13892;DHT22;7016;48.172;8.058;2023-04-03T07:27:50;5.60;99.90
13892;DHT22;7016;48.172;8.058;2023-04-03T07:30:16;5.60;99.90
13892;DHT22;7016;48.172;8.058;2023-04-03T07:32:42;5.60;99.90
13892;DHT22;7016;48.172;8.058;2023-04-03T07:35:08;5.40;99.90
13892;DHT22;7016;48.172;8.058;2023-04-03T07:37:33;5.40;99.90
13892;DHT22;7016;48.172;8.058;2023-04-03T07:39:59;5.60;99.90
13892;DHT22;7016;48.172;8.058;2023-04-03T07:42:27;5.70;99.90
13892;DHT22;7016;48.172;8.058;2023-04-03T07:44:53;5.60;99.90
13892;DHT22;7016;48.172;8.058;2023-04-03T07:47:19;5.50;99.90
13892;DHT22;7016;48.172;8.058;2023-04-03T07:49:46;5.50;99.90
13892;DHT22;7016;48.172;8.058;2023-04-03T07:52:12;5.50;99.90
13892;DHT22;7016;48.172;8.058;2023-04-03T07:54:40;5.40;99.90
13892;DHT22;7016;48.172;8.058;2023-04-03T07:57:05;5.50;99.90
13892;DHT22;7016;48.172;8.058;2023-04-03T07:59:31;5.40;99.90
13892;DHT22;7016;48.172;8.058;2023-04-03T08:01:57;5.50;99.90
13892;DHT22;7016;48.172;8.058;2023-04-03T08:04:23;5.70;99.90
13892;DHT22;7016;48.172;8.058;2023-04-03T08:06:49;5.60;99.90
13892;DHT22;7016;48.172;8.058;2023-04-03T08:09:15;5.70;99.90
13892;DHT22;7016;48.172;8.058;2023-04-03T08:11:41;5.50;99.90
13892;DHT22;7016;48.172;8.058;2023-04-03T08:14:07;5.50;99.90
13892;DHT22;7016;48.172;8.058;2023-04-03T08:16:33;5.50;99.90
13892;DHT22;7016;48.172;8.058;2023-04-03T08:18:58;5.50;99.90
13892;DHT22;7016;48.172;8.058;2023-04-03T08:21:25;5.60;99.90
13892;DHT22;7016;48.172;8.058;2023-04-03T08:23:51;5.80;99.90
13892;DHT22;7016;48.172;8.058;2023-04-03T08:26:20;5.80;99.90
13892;DHT22;7016;48.172;8.058;2023-04-03T08:28:47;5.80;99.90
13892;DHT22;7016;48.172;8.058;2023-04-03T08:31:16;5.60;99.90
13892;DHT22;7016;48.172;8.058;2023-04-03T08:33:43;5.60;99.90
13892;DHT22;7016;48.172;8.058;2023-04-03T08:36:22;5.70;99.90
13892;DHT22;7016;48.172;8.058;2023-04-03T08:38:48;5.80;99.90
13892;DHT22;7016;48.172;8.058;2023-04-03T08:41:31;5.80;99.90
13892;DHT22;7016;48.172;8.058;2023-04-03T08:50:04;5.70;99.90
13892;DHT22;7016;48.172;8.058;2023-04-03T08:52:47;5.90;99.90
13892;DHT22;7016;48.172;8.058;2023-04-03T08:57:51;6.00;99.90
13892;DHT22;7016;48.172;8.058;2023-04-03T09:00:20;6.20;99.90
13892;DHT22;7016;48.172;8.058;2023-04-03T09:02:50;6.30;99.90
13892;DHT22;7016;48.172;8.058;2023-04-03T09:07:58;6.40;99.90
13892;DHT22;7016;48.172;8.058;2023-04-03T09:10:28;6.70;99.90
13892;DHT22;7016;48.172;8.058;2023-04-03T09:13:08;6.50;99.90
13892;DHT22;7016;48.172;8.058;2023-04-03T09:15:38;6.50;99.90
13892;DHT22;7016;48.172;8.058;2023-04-03T09:18:23;6.50;99.90
13892;DHT22;7016;48.172;8.058;2023-04-03T09:21:25;6.10;99.90
13892;DHT22;7016;48.172;8.058;2023-04-03T09:23:55;6.10;99.90
13892;DHT22;7016;48.172;8.058;2023-04-03T09:26:31;6.20;99.90
13892;DHT22;7016;48.172;8.058;2023-04-03T09:29:04;6.40;99.90
13892;DHT22;7016;48.172;8.058;2023-04-03T09:31:37;6.50;99.90
13892;DHT22;7016;48.172;8.058;2023-04-03T09:34:08;6.40;99.90
13892;DHT22;7016;48.172;8.058;2023-04-03T09:36:50;6.60;99.90
13892;DHT22;7016;48.172;8.058;2023-04-03T09:39:25;6.60;99.90
13892;DHT22;7016;48.172;8.058;2023-04-03T09:42:05;6.50;99.90
13892;DHT22;7016;48.172;8.058;2023-04-03T09:44:37;6.70;99.90
13892;DHT22;7016;48.172;8.058;2023-04-03T09:47:19;6.60;99.90
13892;DHT22;7016;48.172;8.058;2023-04-03T09:49:49;6.60;99.90
13892;DHT22;7016;48.172;8.058;2023-04-03T09:52:25;6.70;99.90
13892;DHT22;7016;48.172;8.058;2023-04-03T09:54:51;6.60;99.90
13892;DHT22;7016;48.172;8.058;2023-04-03T09:57:17;6.40;99.90
13892;DHT22;7016;48.172;8.058;2023-04-03T10:00:04;6.40;99.90
13892;DHT22;7016;48.172;8.058;2023-04-03T10:02:35;6.30;99.90
13892;DHT22;7016;48.172;8.058;2023-04-03T10:05:03;6.40;99.90
13892;DHT22;7016;48.172;8.058;2023-04-03T10:07:37;6.40;99.90
13892;DHT22;7016;48.172;8.058;2023-04-03T10:10:19;6.60;99.90
13892;DHT22;7016;48.172;8.058;2023-04-03T10:12:46;6.50;99.90
13892;DHT22;7016;48.172;8.058;2023-04-03T10:15:16;6.60;99.90
13892;DHT22;7016;48.172;8.058;2023-04-03T10:17:56;6.50;99.90
13892;DHT22;7016;48.172;8.058;2023-04-03T10:20:34;6.60;99.90
13892;DHT22;7016;48.172;8.058;2023-04-03T10:31:29;7.00;99.90
13892;DHT22;7016;48.172;8.058;2023-04-03T10:34:06;7.10;99.90
13892;DHT22;7016;48.172;8.058;2023-04-03T10:42:46;6.70;99.90
13892;DHT22;7016;48.172;8.058;2023-04-03T10:45:29;6.80;99.90
13892;DHT22;7016;48.172;8.058;2023-04-03T10:50:36;7.10;99.90
13892;DHT22;7016;48.172;8.058;2023-04-03T10:58:39;7.00;99.90
13892;DHT22;7016;48.172;8.058;2023-04-03T11:01:20;7.00;99.90
13892;DHT22;7016;48.172;8.058;2023-04-03T11:03:53;7.10;99.90
13892;DHT22;7016;48.172;8.058;2023-04-03T11:06:24;7.30;99.90
13892;DHT22;7016;48.172;8.058;2023-04-03T11:11:26;7.40;99.90
13892;DHT22;7016;48.172;8.058;2023-04-03T11:16:51;7.50;99.90
13892;DHT22;7016;48.172;8.058;2023-04-03T11:20:03;7.30;99.90
13892;DHT22;7016;48.172;8.058;2023-04-03T11:22:41;7.10;99.90
13892;DHT22;7016;48.172;8.058;2023-04-03T11:25:18;7.20;99.90
13892;DHT22;7016;48.172;8.058;2023-04-03T11:30:42;7.30;99.90
13892;DHT22;7016;48.172;8.058;2023-04-03T11:35:50;7.30;99.90
13892;DHT22;7016;48.172;8.058;2023-04-03T11:38:25;7.20;99.90
13892;DHT22;7016;48.172;8.058;2023-04-03T11:40:53;7.30;99.90
13892;DHT22;7016;48.172;8.058;2023-04-03T11:43:24;7.20;99.90
13892;DHT22;7016;48.172;8.058;2023-04-03T11:46:00;7.40;99.90
13892;DHT22;7016;48.172;8.058;2023-04-03T11:50:54;7.30;99.90
13892;DHT22;7016;48.172;8.058;2023-04-03T11:53:43;7.00;99.90
13892;DHT22;7016;48.172;8.058;2023-04-03T12:01:59;7.30;99.90
13892;DHT22;7016;48.172;8.058;2023-04-03T12:04:35;7.50;99.90
13892;DHT22;7016;48.172;8.058;2023-04-03T12:07:14;7.50;99.90
13892;DHT22;7016;48.172;8.058;2023-04-03T12:12:40;7.40;99.90
13892;DHT22;7016;48.172;8.058;2023-04-03T12:15:19;7.40;99.90
13892;DHT22;7016;48.172;8.058;2023-04-03T12:17:46;7.30;99.90
13892;DHT22;7016;48.172;8.058;2023-04-03T12:23:25;7.40;99.90
13892;DHT22;7016;48.172;8.058;2023-04-03T12:25:51;7.30;99.90
13892;DHT22;7016;48.172;8.058;2023-04-03T12:28:24;7.40;99.90
13892;DHT22;7016;48.172;8.058;2023-04-03T12:30:50;7.50;99.90
13892;DHT22;7016;48.172;8.058;2023-04-03T12:33:36;7.60;99.90
13892;DHT22;7016;48.172;8.058;2023-04-03T12:36:15;7.70;99.90
13892;DHT22;7016;48.172;8.058;2023-04-03T12:38:58;7.60;99.90
13892;DHT22;7016;48.172;8.058;2023-04-03T12:47:34;7.60;99.90
13892;DHT22;7016;48.172;8.058;2023-04-03T12:50:02;7.40;99.90
13892;DHT22;7016;48.172;8.058;2023-04-03T12:52:37;7.50;99.90
13892;DHT22;7016;48.172;8.058;2023-04-03T12:55:13;7.50;99.90
13892;DHT22;7016;48.172;8.058;2023-04-03T12:57:40;7.60;99.90
13892;DHT22;7016;48.172;8.058;2023-04-03T13:02:53;7.40;99.90
13892;DHT22;7016;48.172;8.058;2023-04-03T13:05:21;7.40;99.90
13892;DHT22;7016;48.172;8.058;2023-04-03T13:08:10;7.60;99.90
13892;DHT22;7016;48.172;8.058;2023-04-03T13:10:56;7.50;99.90
13892;DHT22;7016;48.172;8.058;2023-04-03T13:13:23;7.60;99.90
13892;DHT22;7016;48.172;8.058;2023-04-03T13:15:50;7.60;99.90
13892;DHT22;7016;48.172;8.058;2023-04-03T13:18:31;7.60;99.90
13892;DHT22;7016;48.172;8.058;2023-04-03T13:21:07;7.40;99.90
13892;DHT22;7016;48.172;8.058;2023-04-03T13:23:38;7.60;99.90
13892;DHT22;7016;48.172;8.058;2023-04-03T13:26:06;7.70;99.90
13892;DHT22;7016;48.172;8.058;2023-04-03T13:28:33;7.80;99.90
13892;DHT22;7016;48.172;8.058;2023-04-03T13:34:09;7.50;99.90
13892;DHT22;7016;48.172;8.058;2023-04-03T13:36:46;7.80;99.90
13892;DHT22;7016;48.172;8.058;2023-04-03T13:39:28;7.80;99.90
13892;DHT22;7016;48.172;8.058;2023-04-03T13:41:56;7.90;99.90
13892;DHT22;7016;48.172;8.058;2023-04-03T13:46:53;7.60;99.90
13892;DHT22;7016;48.172;8.058;2023-04-03T13:51:58;7.70;99.90
13892;DHT22;7016;48.172;8.058;2023-04-03T13:54:31;7.70;99.90
13892;DHT22;7016;48.172;8.058;2023-04-03T13:56:59;7.90;99.90
13892;DHT22;7016;48.172;8.058;2023-04-03T13:59:31;8.00;99.90
13892;DHT22;7016;48.172;8.058;2023-04-03T14:07:02;7.80;99.90
13892;DHT22;7016;48.172;8.058;2023-04-03T14:09:29;7.90;99.90
13892;DHT22;7016;48.172;8.058;2023-04-03T14:11:59;7.90;99.90
13892;DHT22;7016;48.172;8.058;2023-04-03T14:14:31;7.90;99.90
13892;DHT22;7016;48.172;8.058;2023-04-03T14:17:01;7.80;99.90
13892;DHT22;7016;48.172;8.058;2023-04-03T14:19:32;7.80;99.90
13892;DHT22;7016;48.172;8.058;2023-04-03T14:22:00;7.90;99.90
13892;DHT22;7016;48.172;8.058;2023-04-03T14:24:25;7.90;99.90
13892;DHT22;7016;48.172;8.058;2023-04-03T14:26:54;8.10;99.90
13892;DHT22;7016;48.172;8.058;2023-04-03T14:29:21;7.90;99.90
13892;DHT22;7016;48.172;8.058;2023-04-03T14:31:48;7.90;99.90
13892;DHT22;7016;48.172;8.058;2023-04-03T14:34:16;8.10;99.90
13892;DHT22;7016;48.172;8.058;2023-04-03T14:36:43;7.70;99.90
13892;DHT22;7016;48.172;8.058;2023-04-03T14:39:16;7.50;99.90
13892;DHT22;7016;48.172;8.058;2023-04-03T14:41:42;7.60;99.90
13892;DHT22;7016;48.172;8.058;2023-04-03T14:44:08;7.80;99.90
13892;DHT22;7016;48.172;8.058;2023-04-03T14:46:42;7.80;99.90
13892;DHT22;7016;48.172;8.058;2023-04-03T14:49:18;7.90;99.90
13892;DHT22;7016;48.172;8.058;2023-04-03T14:51:46;7.90;99.90
13892;DHT22;7016;48.172;8.058;2023-04-03T14:54:15;7.80;99.90
13892;DHT22;7016;48.172;8.058;2023-04-03T14:56:41;7.90;99.90
13892;DHT22;7016;48.172;8.058;2023-04-03T14:59:14;7.90;99.90
13892;DHT22;7016;48.172;8.058;2023-04-03T15:01:40;7.90;99.90
13892;DHT22;7016;48.172;8.058;2023-04-03T15:04:20;7.80;99.90
13892;DHT22;7016;48.172;8.058;2023-04-03T15:06:47;7.80;99.90
13892;DHT22;7016;48.172;8.058;2023-04-03T15:09:24;7.90;99.90
13892;DHT22;7016;48.172;8.058;2023-04-03T15:11:53;7.90;99.90
13892;DHT22;7016;48.172;8.058;2023-04-03T15:14:19;7.90;99.90
13892;DHT22;7016;48.172;8.058;2023-04-03T15:16:45;7.90;99.90
13892;DHT22;7016;48.172;8.058;2023-04-03T15:19:11;7.80;99.90
13892;DHT22;7016;48.172;8.058;2023-04-03T15:21:37;7.60;99.90
13892;DHT22;7016;48.172;8.058;2023-04-03T15:24:03;7.40;99.90
13892;DHT22;7016;48.172;8.058;2023-04-03T15:26:30;7.50;99.90
13892;DHT22;7016;48.172;8.058;2023-04-03T15:28:56;7.40;99.90
13892;DHT22;7016;48.172;8.058;2023-04-03T15:31:22;7.40;99.90
13892;DHT22;7016;48.172;8.058;2023-04-03T15:33:48;7.50;99.90
13892;DHT22;7016;48.172;8.058;2023-04-03T15:36:13;7.40;99.90
13892;DHT22;7016;48.172;8.058;2023-04-03T15:38:39;7.40;99.90
13892;DHT22;7016;48.172;8.058;2023-04-03T15:41:05;7.50;99.90
13892;DHT22;7016;48.172;8.058;2023-04-03T15:43:32;7.60;99.90
13892;DHT22;7016;48.172;8.058;2023-04-03T15:46:01;7.70;99.90
13892;DHT22;7016;48.172;8.058;2023-04-03T15:48:27;7.70;99.90
13892;DHT22;7016;48.172;8.058;2023-04-03T15:50:53;7.70;99.90
13892;DHT22;7016;48.172;8.058;2023-04-03T15:53:20;7.80;99.90
13892;DHT22;7016;48.172;8.058;2023-04-03T15:55:47;7.60;99.90
13892;DHT22;7016;48.172;8.058;2023-04-03T15:58:12;7.60;99.90
13892;DHT22;7016;48.172;8.058;2023-04-03T16:00:38;7.60;99.90
13892;DHT22;7016;48.172;8.058;2023-04-03T16:03:07;7.70;99.90
13892;DHT22;7016;48.172;8.058;2023-04-03T16:05:35;7.60;99.90
13892;DHT22;7016;48.172;8.058;2023-04-03T16:08:02;7.50;99.90
13892;DHT22;7016;48.172;8.058;2023-04-03T16:10:28;7.40;99.90
13892;DHT22;7016;48.172;8.058;2023-04-03T16:12:54;7.30;99.90
13892;DHT22;7016;48.172;8.058;2023-04-03T16:15:20;7.20;99.60
13892;DHT22;7016;48.172;8.058;2023-04-03T16:17:46;7.20;99.90
13892;DHT22;7016;48.172;8.058;2023-04-03T16:20:14;7.30;99.90
13892;DHT22;7016;48.172;8.058;2023-04-03T16:22:40;7.40;99.90
13892;DHT22;7016;48.172;8.058;2023-04-03T16:25:07;7.40;99.90
13892;DHT22;7016;48.172;8.058;2023-04-03T16:27:34;7.30;99.90
13892;DHT22;7016;48.172;8.058;2023-04-03T16:30:00;7.40;99.90
13892;DHT22;7016;48.172;8.058;2023-04-03T16:32:28;7.40;99.90
13892;DHT22;7016;48.172;8.058;2023-04-03T16:34:54;7.50;99.90
13892;DHT22;7016;48.172;8.058;2023-04-03T16:37:20;7.50;99.90
13892;DHT22;7016;48.172;8.058;2023-04-03T16:39:46;7.40;99.90
13892;DHT22;7016;48.172;8.058;2023-04-03T16:42:12;7.30;99.90
13892;DHT22;7016;48.172;8.058;2023-04-03T16:44:38;7.30;99.90
13892;DHT22;7016;48.172;8.058;2023-04-03T16:47:05;7.30;99.90
13892;DHT22;7016;48.172;8.058;2023-04-03T16:49:31;7.00;99.90
13892;DHT22;7016;48.172;8.058;2023-04-03T16:52:05;7.10;99.90
13892;DHT22;7016;48.172;8.058;2023-04-03T16:54:31;7.20;99.90
13892;DHT22;7016;48.172;8.058;2023-04-03T16:56:57;7.20;99.90
13892;DHT22;7016;48.172;8.058;2023-04-03T16:59:23;7.30;99.90
13892;DHT22;7016;48.172;8.058;2023-04-03T17:01:50;7.30;99.90
13892;DHT22;7016;48.172;8.058;2023-04-03T17:04:16;7.10;99.90
13892;DHT22;7016;48.172;8.058;2023-04-03T17:06:42;7.20;99.90
13892;DHT22;7016;48.172;8.058;2023-04-03T17:09:08;7.30;99.90
13892;DHT22;7016;48.172;8.058;2023-04-03T17:11:35;7.30;99.90
13892;DHT22;7016;48.172;8.058;2023-04-03T17:14:01;7.30;99.90
13892;DHT22;7016;48.172;8.058;2023-04-03T17:16:29;7.30;99.90
13892;DHT22;7016;48.172;8.058;2023-04-03T17:18:55;7.40;99.90
13892;DHT22;7016;48.172;8.058;2023-04-03T17:21:21;7.40;99.90
13892;DHT22;7016;48.172;8.058;2023-04-03T17:23:51;7.30;99.90
13892;DHT22;7016;48.172;8.058;2023-04-03T17:26:19;7.20;99.90
13892;DHT22;7016;48.172;8.058;2023-04-03T17:28:46;7.20;99.90
13892;DHT22;7016;48.172;8.058;2023-04-03T17:31:12;7.30;99.90
13892;DHT22;7016;48.172;8.058;2023-04-03T17:33:37;7.30;99.90
13892;DHT22;7016;48.172;8.058;2023-04-03T17:36:04;7.20;99.90
13892;DHT22;7016;48.172;8.058;2023-04-03T17:38:31;7.30;99.90